Time;durP1;ratioP1;P1;durP2;ratioP2;P2;SDS_P1;SDS_P2;PMS_P1;PMS_P2;Temp;Humidity;BMP_temperature;BMP_pressure;BME280_temperature;BME280_humidity;BME280_pressure;Samples;Min_cycle;Max_cycle;Signal;HPM_P1;HPM_P2
2022/06/21 00:00:18;;;;;;;4.90;4.60;;;13.50;99.90;;;;;;4947646;29;20418;-90
2022/06/21 00:02:45;;;;;;;5.50;5.20;;;13.20;99.90;;;;;;4935865;29;20538;-88
2022/06/21 00:05:25;;;;;;;6.57;5.50;;;14.30;99.90;;;;;;4953880;29;20421;-87
2022/06/21 00:07:51;;;;;;;7.80;7.30;;;13.30;99.90;;;;;;4938681;29;20441;-87
2022/06/21 00:10:19;;;;;;;7.90;7.50;;;13.10;99.90;;;;;;4940696;29;20954;-87
2022/06/21 00:12:45;;;;;;;7.60;7.00;;;13.20;99.90;;;;;;4940465;29;20199;-87
2022/06/21 00:15:12;;;;;;;5.80;5.47;;;13.20;99.90;;;;;;4932521;29;20487;-87
2022/06/21 00:17:40;;;;;;;5.77;5.47;;;13.20;99.90;;;;;;4929207;29;20478;-87
2022/06/21 00:20:10;;;;;;;5.87;5.57;;;12.80;99.90;;;;;;4925966;29;21018;-88
2022/06/21 00:22:36;;;;;;;5.83;5.50;;;13.30;99.90;;;;;;4934323;28;20458;-88
2022/06/21 00:25:24;;;;;;;5.67;5.47;;;13.20;99.90;;;;;;4937913;29;20522;-88
2022/06/21 00:27:52;;;;;;;5.83;5.60;;;13.20;99.90;;;;;;4900489;29;20455;-88
2022/06/21 00:30:18;;;;;;;5.53;5.13;;;13.20;99.90;;;;;;4928843;29;20442;-87
2022/06/21 00:32:45;;;;;;;6.50;6.20;;;13.20;99.90;;;;;;4937978;29;20597;-87
2022/06/21 00:35:16;;;;;;;7.43;6.70;;;13.50;99.90;;;;;;4927875;29;20515;-87
2022/06/21 00:37:42;;;;;;;6.73;6.13;;;12.80;99.90;;;;;;4918236;29;20444;-87
2022/06/21 00:40:22;;;;;;;6.60;6.27;;;12.90;99.90;;;;;;4941173;29;20442;-87
2022/06/21 00:42:57;;;;;;;6.90;6.20;;;13.20;99.90;;;;;;4938442;29;20525;-87
2022/06/21 00:45:31;;;;;;;5.80;5.60;;;13.30;99.90;;;;;;4920467;29;20419;-87
2022/06/21 00:48:02;;;;;;;6.70;6.23;;;12.70;99.90;;;;;;4916512;29;21053;-87
2022/06/21 00:50:35;;;;;;;5.80;5.50;;;13.00;99.90;;;;;;4912781;29;20953;-87
2022/06/21 00:53:25;;;;;;;6.17;5.77;;;13.10;99.90;;;;;;4906975;29;20862;-87
2022/06/21 00:56:00;;;;;;;6.13;5.73;;;13.60;99.90;;;;;;4914359;29;20486;-87
2022/06/21 00:58:27;;;;;;;5.00;4.80;;;13.90;99.90;;;;;;4910076;29;20458;-87
2022/06/21 01:01:03;;;;;;;5.30;5.07;;;13.10;99.90;;;;;;4925325;29;20518;-87
2022/06/21 01:03:38;;;;;;;5.30;4.97;;;13.40;99.90;;;;;;4925925;29;20431;-87
2022/06/21 01:06:13;;;;;;;5.77;5.47;;;13.10;99.90;;;;;;4950183;29;20476;-88
2022/06/21 01:08:43;;;;;;;6.60;6.07;;;13.50;99.90;;;;;;4922667;29;20458;-88
2022/06/21 01:11:24;;;;;;;5.40;5.20;;;13.00;99.90;;;;;;4927854;29;20452;-87
2022/06/21 01:13:54;;;;;;;6.13;5.83;;;12.90;99.90;;;;;;4905111;29;20455;-87
2022/06/21 01:16:23;;;;;;;6.33;5.93;;;14.60;99.90;;;;;;4948456;29;20796;-87
2022/06/21 01:18:49;;;;;;;6.93;6.63;;;12.60;99.90;;;;;;4918355;29;20478;-88
2022/06/21 01:21:17;;;;;;;6.10;5.80;;;13.00;99.90;;;;;;4951180;28;20490;-86
2022/06/21 01:23:54;;;;;;;6.47;6.07;;;12.50;99.90;;;;;;4936368;29;20198;-87
2022/06/21 01:26:59;;;;;;;6.10;5.57;;;13.20;99.90;;;;;;4929499;29;20466;-88
2022/06/21 01:29:30;;;;;;;5.60;5.20;;;12.80;99.90;;;;;;4860524;29;20433;-88
2022/06/21 01:32:00;;;;;;;5.10;4.67;;;14.30;99.90;;;;;;4915353;29;20434;-88
2022/06/21 01:34:28;;;;;;;5.53;5.30;;;12.70;99.90;;;;;;4952405;29;20498;-88
2022/06/21 01:37:06;;;;;;;5.63;5.33;;;12.40;99.90;;;;;;4932807;29;21020;-87
2022/06/21 01:39:54;;;;;;;6.53;5.97;;;13.00;99.90;;;;;;4924480;29;20427;-87
2022/06/21 01:42:26;;;;;;;4.90;4.80;;;13.10;99.90;;;;;;4914811;29;20864;-88
2022/06/21 01:44:57;;;;;;;5.03;4.93;;;13.10;99.90;;;;;;4924233;29;20496;-87
2022/06/21 01:47:27;;;;;;;6.10;5.73;;;13.00;99.90;;;;;;4937403;29;20541;-87
2022/06/21 01:49:58;;;;;;;5.03;4.63;;;12.80;99.90;;;;;;4969830;29;20431;-86
2022/06/21 01:52:26;;;;;;;5.30;5.03;;;14.70;99.90;;;;;;4948111;29;20457;-86
2022/06/21 01:55:06;;;;;;;5.37;5.03;;;13.90;99.90;;;;;;4946015;29;20422;-88
2022/06/21 01:57:32;;;;;;;5.60;5.13;;;13.20;99.90;;;;;;4952647;28;20443;-87
2022/06/21 01:59:58;;;;;;;6.10;5.70;;;12.80;99.90;;;;;;4947618;29;20438;-87
2022/06/21 02:02:30;;;;;;;4.97;4.60;;;13.10;99.90;;;;;;4944834;29;20439;-87
2022/06/21 02:05:05;;;;;;;6.53;5.97;;;13.60;99.90;;;;;;4949917;29;20424;-87
2022/06/21 02:07:35;;;;;;;5.60;5.20;;;13.50;99.90;;;;;;4935261;29;20485;-87
2022/06/21 02:10:10;;;;;;;5.30;5.10;;;12.60;99.90;;;;;;4940063;29;20412;-87
2022/06/21 02:12:39;;;;;;;6.90;6.60;;;13.20;99.90;;;;;;4945780;29;20441;-87
2022/06/21 02:15:11;;;;;;;6.17;5.97;;;14.90;99.90;;;;;;4926551;29;20431;-87
2022/06/21 02:17:41;;;;;;;5.63;5.43;;;12.90;99.90;;;;;;4951583;29;20465;-87
2022/06/21 02:20:25;;;;;;;6.33;6.03;;;14.10;99.90;;;;;;4935337;29;20523;-87
2022/06/21 02:22:50;;;;;;;8.27;5.87;;;12.30;99.90;;;;;;4933670;29;20460;-86
2022/06/21 02:25:21;;;;;;;8.40;7.60;;;12.50;99.90;;;;;;4930922;29;20805;-87
2022/06/21 02:27:50;;;;;;;7.00;6.60;;;12.30;99.90;;;;;;4934831;28;20193;-87
2022/06/21 02:30:22;;;;;;;6.47;6.20;;;12.30;99.90;;;;;;4949607;29;21020;-87
2022/06/21 02:32:50;;;;;;;6.80;6.30;;;12.10;99.90;;;;;;4944959;29;21078;-87
2022/06/21 02:35:34;;;;;;;6.67;6.17;;;12.10;99.90;;;;;;4951062;29;20450;-87
2022/06/21 02:38:03;;;;;;;6.77;6.27;;;12.10;99.90;;;;;;4938111;29;20435;-87
2022/06/21 02:40:34;;;;;;;7.50;7.03;;;11.90;99.90;;;;;;4937920;29;20430;-88
2022/06/21 02:43:04;;;;;;;5.83;5.53;;;12.00;99.90;;;;;;4924692;29;20886;-87
2022/06/21 02:45:59;;;;;;;5.47;5.23;;;12.30;99.90;;;;;;4941379;29;20419;-87
2022/06/21 02:48:29;;;;;;;6.20;5.90;;;12.20;99.90;;;;;;4930447;29;20451;-88
2022/06/21 02:51:08;;;;;;;7.57;6.80;;;12.30;99.90;;;;;;4918492;29;20785;-87
2022/06/21 02:53:50;;;;;;;5.90;5.70;;;12.50;99.90;;;;;;4939340;29;21063;-87
2022/06/21 02:56:25;;;;;;;7.37;6.70;;;13.30;99.90;;;;;;4917618;29;20430;-86
2022/06/21 02:58:57;;;;;;;6.73;6.30;;;12.50;99.90;;;;;;4930946;29;20438;-87
2022/06/21 03:01:33;;;;;;;6.43;5.70;;;12.30;99.90;;;;;;4936563;29;20526;-87
2022/06/21 03:03:59;;;;;;;6.13;5.67;;;12.20;99.90;;;;;;4941604;28;20516;-88
2022/06/21 03:06:27;;;;;;;5.90;5.60;;;12.40;99.90;;;;;;4950714;28;20553;-88
2022/06/21 03:09:03;;;;;;;6.23;5.73;;;12.30;99.90;;;;;;4946142;28;20523;-88
2022/06/21 03:11:33;;;;;;;5.97;5.47;;;12.60;99.90;;;;;;4927894;29;20956;-86
2022/06/21 03:14:04;;;;;;;5.60;5.20;;;12.50;99.90;;;;;;4947992;28;20987;-87
2022/06/21 03:16:30;;;;;;;7.50;5.80;;;12.40;99.90;;;;;;4947111;28;20456;-87
2022/06/21 03:19:01;;;;;;;5.47;5.20;;;12.40;99.90;;;;;;4933507;29;20466;-87
2022/06/21 03:21:29;;;;;;;5.17;4.97;;;12.40;99.90;;;;;;4957110;29;20485;-88
2022/06/21 03:23:57;;;;;;;6.87;6.20;;;12.40;99.90;;;;;;4946095;28;20429;-87
2022/06/21 03:26:29;;;;;;;5.60;5.50;;;;;;;;;;4965387;28;21057;-86
2022/06/21 03:28:55;;;;;;;5.73;5.43;;;;;;;;;;4935105;29;20545;-87
2022/06/21 03:31:28;;;;;;;6.23;5.83;;;12.30;99.90;;;;;;4944965;29;20415;-87
2022/06/21 03:33:59;;;;;;;7.70;6.00;;;12.20;99.90;;;;;;4946359;28;20470;-89
2022/06/21 03:44:37;;;;;;;6.17;5.67;;;12.10;99.90;;;;;;5001302;28;20424;-92
2022/06/21 03:47:30;;;;;;;9.60;6.23;;;12.10;99.90;;;;;;4979685;28;20485;-90
2022/06/21 03:50:01;;;;;;;6.17;5.97;;;12.00;99.90;;;;;;5409512;22;20472;-93
2022/06/21 03:52:44;;;;;;;6.77;6.30;;;12.00;99.90;;;;;;5016630;28;20479;-93
2022/06/21 03:55:31;;;;;;;5.90;5.60;;;12.10;99.90;;;;;;4994941;28;20448;-91
2022/06/21 03:58:06;;;;;;;6.43;6.03;;;12.10;99.90;;;;;;4997602;28;20452;-92
2022/06/21 04:01:44;;;;;;;7.73;6.77;;;12.20;99.90;;;;;;4996544;28;20503;-93
2022/06/21 04:04:33;;;;;;;6.50;5.90;;;12.20;99.90;;;;;;4915232;29;20424;-93
2022/06/21 04:07:14;;;;;;;6.57;6.27;;;12.20;99.90;;;;;;4924044;29;20467;-95
2022/06/21 04:09:53;;;;;;;9.97;5.70;;;;;;;;;;4969267;28;20539;-93
2022/06/21 04:12:26;;;;;;;7.80;6.10;;;;;;;;;;4973128;28;20445;-93
2022/06/21 04:15:14;;;;;;;6.63;6.03;;;;;;;;;;4979944;28;20450;-94
2022/06/21 04:18:06;;;;;;;6.00;5.43;;;;;;;;;;4993977;28;20421;-94
2022/06/21 04:20:38;;;;;;;5.70;5.50;;;;;;;;;;4975515;28;20425;-94
2022/06/21 04:23:09;;;;;;;8.47;7.60;;;;;;;;;;4993865;28;20498;-91
2022/06/21 04:26:02;;;;;;;6.10;5.60;;;;;;;;;;4990776;28;20487;-92
2022/06/21 04:28:32;;;;;;;6.23;5.73;;;;;;;;;;4993819;28;20412;-94
2022/06/21 04:31:00;;;;;;;6.37;6.07;;;;;;;;;;4990725;28;20969;-93
2022/06/21 04:33:26;;;;;;;6.50;6.00;;;;;;;;;;4981868;28;20439;-92
2022/06/21 04:35:55;;;;;;;9.60;6.60;;;;;;;;;;4983310;28;20877;-92
2022/06/21 04:38:27;;;;;;;6.03;5.63;;;;;;;;;;4978332;28;20436;-93
2022/06/21 04:40:59;;;;;;;6.53;5.97;;;;;;;;;;5002581;28;20592;-93
2022/06/21 04:43:38;;;;;;;7.17;6.77;;;;;;;;;;4992972;28;20431;-93
2022/06/21 04:46:22;;;;;;;6.17;5.80;;;;;;;;;;5002679;28;20476;-92
2022/06/21 04:48:57;;;;;;;5.30;4.80;;;;;;;;;;4990836;28;20432;-91
2022/06/21 04:51:32;;;;;;;5.60;5.20;;;;;;;;;;4969707;28;20471;-93
2022/06/21 04:54:22;;;;;;;4.87;4.60;;;14.40;99.90;;;;;;4970777;28;20515;-93
2022/06/21 04:57:32;;;;;;;5.80;5.40;;;14.60;99.90;;;;;;4978692;28;20425;-91
2022/06/21 05:00:18;;;;;;;5.83;5.60;;;14.80;99.90;;;;;;4972540;28;20416;-93
2022/06/21 05:02:52;;;;;;;5.37;5.07;;;15.20;99.90;;;;;;4969519;28;20445;-93
2022/06/21 05:05:21;;;;;;;4.80;4.60;;;15.50;99.90;;;;;;4987480;28;20869;-93
2022/06/21 05:07:54;;;;;;;6.50;6.10;;;15.80;99.90;;;;;;5022803;28;20459;-93
2022/06/21 05:10:51;;;;;;;6.00;5.40;;;16.10;99.90;;;;;;4994413;28;20467;-89
2022/06/21 05:14:11;;;;;;;5.93;5.03;;;16.20;99.90;;;;;;4991464;28;20481;-92
2022/06/21 05:16:33;;;;;;;7.33;5.87;;;16.40;99.90;;;;;;4998830;28;20495;-93
2022/06/21 05:19:08;;;;;;;5.27;4.97;;;16.70;99.90;;;;;;4652009;28;10000244;-90
2022/06/21 05:21:39;;;;;;;5.43;5.00;;;16.60;99.90;;;;;;4979000;28;20204;-89
2022/06/21 05:24:09;;;;;;;4.87;4.50;;;16.80;99.90;;;;;;4985297;28;20448;-91
2022/06/21 05:26:40;;;;;;;4.40;4.17;;;17.20;99.90;;;;;;4987285;28;20461;-91
2022/06/21 05:29:13;;;;;;;4.60;4.50;;;17.50;99.90;;;;;;4994291;28;20445;-89
2022/06/21 05:31:42;;;;;;;4.53;4.33;;;17.50;99.90;;;;;;4987759;28;20417;-90
2022/06/21 05:34:26;;;;;;;7.03;4.53;;;17.60;99.90;;;;;;4987150;28;20443;-93
2022/06/21 05:37:04;;;;;;;5.40;5.00;;;18.30;99.90;;;;;;4974435;28;20439;-89
2022/06/21 05:39:33;;;;;;;4.50;4.10;;;;;;;;;;4998227;28;20447;-91
2022/06/21 05:42:02;;;;;;;4.40;4.10;;;;;;;;;;4982848;28;20522;-91
2022/06/21 05:44:37;;;;;;;4.20;4.00;;;;;;;;;;4979408;28;20441;-90
2022/06/21 05:47:17;;;;;;;4.70;4.30;;;19.20;99.90;;;;;;5004429;28;20530;-91
2022/06/21 05:49:44;;;;;;;3.93;3.67;;;;;;;;;;5002556;28;20549;-90
2022/06/21 05:52:38;;;;;;;4.33;3.73;;;19.90;99.90;;;;;;4993584;28;20464;-90
2022/06/21 05:55:09;;;;;;;4.00;3.80;;;20.10;99.90;;;;;;4963495;28;20465;-90
2022/06/21 06:01:30;;;;;;;4.53;3.93;;;;;;;;;;4994538;28;20432;-89
2022/06/21 06:04:14;;;;;;;3.20;3.10;;;;;;;;;;4977893;28;20510;-91
2022/06/21 06:06:45;;;;;;;4.03;3.70;;;20.80;99.90;;;;;;4986901;28;20567;-93
2022/06/21 06:09:26;;;;;;;3.70;3.50;;;21.40;99.90;;;;;;5009108;28;20443;-93
2022/06/21 06:12:34;;;;;;;4.00;3.63;;;20.90;99.90;;;;;;4987235;28;20439;-93
2022/06/21 06:15:13;;;;;;;3.33;3.23;;;21.30;99.90;;;;;;4968030;28;20447;-92
2022/06/21 06:17:45;;;;;;;4.80;3.80;;;22.10;99.90;;;;;;4988156;28;20432;-90
2022/06/21 06:20:19;;;;;;;3.50;3.30;;;22.90;99.90;;;;;;4994321;28;20486;-90
2022/06/21 06:23:01;;;;;;;3.70;3.40;;;22.30;99.90;;;;;;5012616;28;20450;-92
2022/06/21 06:25:50;;;;;;;3.70;3.30;;;22.40;99.90;;;;;;4985428;28;20528;-93
2022/06/21 06:29:05;;;;;;;3.00;2.90;;;22.60;99.30;;;;;;4965501;28;20529;-90
2022/06/21 06:32:01;;;;;;;4.23;4.00;;;23.60;95.90;;;;;;4991821;28;20424;-90
2022/06/21 06:35:03;;;;;;;3.20;2.70;;;24.10;95.20;;;;;;5007769;28;20442;-90
2022/06/21 06:37:46;;;;;;;3.43;2.17;;;24.00;92.30;;;;;;5005565;28;20431;-92
2022/06/21 06:40:39;;;;;;;4.90;4.50;;;23.70;93.30;;;;;;4984782;28;20477;-90
2022/06/21 06:43:14;;;;;;;5.57;2.10;;;24.10;90.90;;;;;;4984777;28;20472;-90
2022/06/21 06:45:42;;;;;;;3.00;2.70;;;24.40;91.70;;;;;;4986787;28;20459;-92
2022/06/21 06:48:28;;;;;;;2.53;2.43;;;24.30;91.00;;;;;;4996428;28;20531;-92
2022/06/21 06:50:59;;;;;;;2.13;2.13;;;24.40;90.30;;;;;;4994608;28;20474;-90
2022/06/21 06:53:50;;;;;;;2.50;2.30;;;24.70;89.90;;;;;;5005331;28;20403;-90
2022/06/21 06:56:21;;;;;;;2.50;2.40;;;24.70;83.70;;;;;;4985841;28;20483;-91
2022/06/21 06:59:03;;;;;;;2.63;2.50;;;23.90;84.20;;;;;;4972710;28;20433;-91
2022/06/21 07:01:58;;;;;;;2.20;2.10;;;24.30;84.80;;;;;;4995552;28;20503;-92
2022/06/21 07:04:33;;;;;;;2.43;2.30;;;24.70;79.00;;;;;;4987330;28;20425;-91
2022/06/21 07:07:16;;;;;;;2.70;2.20;;;24.80;82.10;;;;;;4978912;28;20459;-91
2022/06/21 07:09:58;;;;;;;2.00;1.90;;;24.90;80.50;;;;;;5001730;28;20424;-90
2022/06/21 07:12:27;;;;;;;4.43;2.20;;;25.60;83.30;;;;;;5004304;28;20413;-90
2022/06/21 07:14:54;;;;;;;2.33;2.23;;;25.90;79.30;;;;;;4998848;28;20463;-89
2022/06/21 07:17:55;;;;;;;1.83;1.83;;;26.20;77.30;;;;;;4985864;28;20468;-89
2022/06/21 07:20:52;;;;;;;3.93;3.23;;;26.30;74.10;;;;;;4988999;28;20500;-90
2022/06/21 07:23:36;;;;;;;3.40;2.50;;;25.70;71.30;;;;;;4977119;28;20424;-89
2022/06/21 07:26:18;;;;;;;2.20;2.10;;;26.20;76.10;;;;;;4980133;28;20461;-91
2022/06/21 07:29:18;;;;;;;5.73;5.33;;;27.00;70.70;;;;;;4976237;28;20460;-91
2022/06/21 07:31:56;;;;;;;3.10;2.90;;;26.10;68.20;;;;;;4967897;28;20542;-87
2022/06/21 07:34:28;;;;;;;3.33;2.80;;;25.80;66.70;;;;;;4979427;28;20447;-91
2022/06/21 07:37:12;;;;;;;2.87;2.77;;;25.80;67.40;;;;;;4978091;28;20460;-90
2022/06/21 07:39:44;;;;;;;2.90;2.67;;;25.60;66.40;;;;;;4976061;28;20416;-90
2022/06/21 07:42:22;;;;;;;2.40;2.20;;;26.10;72.10;;;;;;4969977;28;20476;-91
2022/06/21 07:45:00;;;;;;;2.33;2.13;;;26.80;70.10;;;;;;4971093;28;20409;-91
2022/06/21 07:47:47;;;;;;;3.60;2.80;;;27.30;67.60;;;;;;4980937;28;21041;-93
2022/06/21 07:50:30;;;;;;;4.63;2.80;;;;;;;;;;4991200;28;22025;-91
2022/06/21 07:53:05;;;;;;;2.33;2.20;;;27.80;67.30;;;;;;4976641;28;20424;-91
2022/06/21 07:55:35;;;;;;;4.00;2.83;;;26.80;63.40;;;;;;4971234;28;20421;-88
2022/06/21 07:58:20;;;;;;;2.83;2.73;;;26.90;67.60;;;;;;4978700;28;20424;-90
2022/06/21 08:06:41;;;;;;;4.83;2.80;;;27.30;68.60;;;;;;4995413;28;20502;-91
2022/06/21 08:09:22;;;;;;;2.93;2.73;;;26.80;68.60;;;;;;4990059;28;20863;-89
2022/06/21 08:12:01;;;;;;;2.30;2.20;;;27.30;63.50;;;;;;4994833;28;20463;-88
2022/06/21 08:14:35;;;;;;;3.30;2.73;;;27.40;65.00;;;;;;4968610;28;20417;-89
2022/06/21 08:17:27;;;;;;;2.13;2.03;;;27.60;65.00;;;;;;4994322;28;20440;-89
2022/06/21 08:20:07;;;;;;;2.43;2.33;;;28.00;62.40;;;;;;4967617;28;20783;-87
2022/06/21 08:22:37;;;;;;;3.50;3.30;;;28.10;62.30;;;;;;4967876;28;20469;-89
2022/06/21 08:25:27;;;;;;;2.80;2.37;;;26.70;61.40;;;;;;4963974;28;20520;-89
2022/06/21 08:28:05;;;;;;;3.37;3.07;;;26.80;61.60;;;;;;4976237;28;20545;-89
2022/06/21 08:30:50;;;;;;;3.57;3.47;;;26.80;59.50;;;;;;4274759;28;10000751;-88
2022/06/21 08:33:36;;;;;;;2.47;2.37;;;26.60;63.60;;;;;;4995983;28;20434;-89
2022/06/21 08:36:38;;;;;;;2.60;2.50;;;27.40;60.40;;;;;;4988286;28;20784;-88
2022/06/21 08:39:22;;;;;;;2.53;2.43;;;27.70;59.80;;;;;;4973157;28;20451;-89
2022/06/21 08:42:11;;;;;;;2.73;2.60;;;28.10;66.60;;;;;;4972284;28;20573;-89
2022/06/21 08:48:10;;;;;;;3.40;3.23;;;29.10;63.30;;;;;;4990239;28;20466;-88
2022/06/21 08:50:42;;;;;;;3.50;2.40;;;28.40;62.70;;;;;;4986454;28;20445;-89
2022/06/21 08:53:41;;;;;;;2.50;2.33;;;29.40;66.50;;;;;;4992625;28;20498;-89
2022/06/21 08:56:13;;;;;;;2.63;2.17;;;29.00;64.20;;;;;;4985587;28;20416;-88
2022/06/21 08:59:08;;;;;;;1.90;1.90;;;29.40;65.30;;;;;;4991827;28;20413;-90
2022/06/21 09:01:43;;;;;;;2.70;2.50;;;30.20;68.00;;;;;;4974048;28;20478;-89
2022/06/21 09:04:24;;;;;;;3.63;2.20;;;30.00;62.20;;;;;;4978149;28;20420;-88
2022/06/21 09:07:20;;;;;;;2.20;2.10;;;29.60;65.70;;;;;;4658411;28;9999764;-89
2022/06/21 09:09:57;;;;;;;2.77;2.43;;;29.60;64.40;;;;;;4999168;28;20212;-88
2022/06/21 09:12:53;;;;;;;3.00;2.70;;;29.80;63.50;;;;;;4994426;28;20424;-89
2022/06/21 09:15:19;;;;;;;2.53;2.53;;;30.20;61.80;;;;;;4998978;28;20432;-89
2022/06/21 09:17:58;;;;;;;3.07;2.90;;;29.90;63.30;;;;;;4998198;28;20420;-87
2022/06/21 09:20:43;;;;;;;3.07;2.30;;;30.30;61.50;;;;;;4980975;28;20282;-89
2022/06/21 09:23:44;;;;;;;2.60;2.50;;;29.80;61.60;;;;;;4996870;28;20435;-88
2022/06/21 09:26:27;;;;;;;3.03;2.60;;;29.80;60.20;;;;;;4968041;28;20578;-87
2022/06/21 09:29:26;;;;;;;4.30;2.45;;;29.30;59.20;;;;;;4980719;28;20470;-88
2022/06/21 09:32:17;;;;;;;3.50;2.40;;;29.20;62.00;;;;;;4978592;28;20747;-87
2022/06/21 09:35:18;;;;;;;3.13;2.83;;;29.00;59.10;;;;;;4992086;28;20416;-86
2022/06/21 09:38:06;;;;;;;3.03;2.83;;;28.00;59.80;;;;;;4990012;28;20459;-89
2022/06/21 09:41:01;;;;;;;2.93;2.57;;;28.10;62.70;;;;;;4988719;28;20520;-86
2022/06/21 09:43:46;;;;;;;2.87;2.77;;;26.40;61.60;;;;;;4998113;28;20462;-89
2022/06/21 09:47:00;;;;;;;3.37;2.87;;;26.50;64.10;;;;;;4972715;28;20836;-91
2022/06/21 09:49:51;;;;;;;2.73;2.53;;;27.30;61.10;;;;;;4971342;28;20443;-90
2022/06/21 09:52:38;;;;;;;3.17;2.97;;;26.80;60.40;;;;;;4978416;28;20481;-90
2022/06/21 09:55:21;;;;;;;3.27;3.00;;;26.50;60.10;;;;;;4996739;28;20496;-88
2022/06/21 09:58:00;;;;;;;2.73;2.63;;;27.40;60.10;;;;;;4984380;28;20970;-90
2022/06/21 10:00:50;;;;;;;2.07;2.07;;;28.30;60.90;;;;;;4986382;28;20516;-91
2022/06/21 10:04:05;;;;;;;2.67;2.20;;;26.60;63.70;;;;;;4989031;28;20539;-92
2022/06/21 10:07:14;;;;;;;2.70;2.30;;;25.60;66.40;;;;;;4979022;28;20500;-91
2022/06/21 10:10:28;;;;;;;4.83;2.20;;;26.20;62.60;;;;;;4998503;28;20435;-91
2022/06/21 10:14:01;;;;;;;2.63;2.43;;;27.80;61.00;;;;;;4990568;28;20425;-91
2022/06/21 10:16:53;;;;;;;2.23;2.23;;;28.70;59.30;;;;;;4932430;29;20505;-91
2022/06/21 10:19:31;;;;;;;2.60;2.50;;;;;;;;;;4994397;28;20443;-88
2022/06/21 10:22:03;;;;;;;3.43;2.30;;;;;;;;;;4976084;28;21047;-89
2022/06/21 10:24:48;;;;;;;2.70;2.50;;;;;;;;;;4978923;28;20445;-90
2022/06/21 10:27:30;;;;;;;2.83;2.73;;;;;;;;;;5000716;28;20549;-90
2022/06/21 10:30:06;;;;;;;2.40;2.40;;;;;;;;;;4978584;28;20453;-90
2022/06/21 10:33:05;;;;;;;2.93;2.83;;;;;;;;;;4999071;28;20442;-90
2022/06/21 10:35:40;;;;;;;4.57;4.37;;;;;;;;;;4986416;28;20444;-90
2022/06/21 10:38:19;;;;;;;3.03;2.67;;;;;;;;;;5003720;28;20521;-89
2022/06/21 10:40:51;;;;;;;5.70;5.40;;;;;;;;;;4981378;28;20417;-89
2022/06/21 10:43:20;;;;;;;2.13;2.07;;;;;;;;;;4986031;28;20519;-90
2022/06/21 10:45:58;;;;;;;3.20;2.93;;;;;;;;;;4997312;28;20452;-90
2022/06/21 10:48:27;;;;;;;2.50;2.30;;;;;;;;;;4999242;28;20439;-90
2022/06/21 10:51:12;;;;;;;2.30;2.30;;;;;;;;;;4997361;28;20474;-86
2022/06/21 10:53:56;;;;;;;2.57;2.57;;;;;;;;;;4994261;28;20432;-90
2022/06/21 10:59:18;;;;;;;3.13;2.40;;;;;;;;;;4993320;28;20427;-91
2022/06/21 11:01:55;;;;;;;2.80;2.57;;;;;;;;;;4994543;28;20454;-90
2022/06/21 11:04:39;;;;;;;2.93;2.83;;;;;;;;;;4970248;28;20409;-91
2022/06/21 11:07:33;;;;;;;4.50;2.50;;;;;;;;;;4991051;28;20461;-89
2022/06/21 11:10:19;;;;;;;3.07;2.87;;;;;;;;;;4987163;28;21890;-91
2022/06/21 11:12:53;;;;;;;3.83;3.63;;;;;;;;;;5008893;28;20455;-91
2022/06/21 11:15:41;;;;;;;2.47;2.37;;;;;;;;;;4997473;28;20531;-92
2022/06/21 11:18:31;;;;;;;3.00;2.80;;;;;;;;;;4975596;28;20405;-91
2022/06/21 11:21:01;;;;;;;3.70;2.50;;;;;;;;;;4973897;28;20456;-86
2022/06/21 11:27:09;;;;;;;3.60;3.30;;;;;;;;;;4990520;28;20465;-89
2022/06/21 11:29:43;;;;;;;3.30;3.10;;;;;;;;;;4974444;28;20437;-92
2022/06/21 11:32:16;;;;;;;2.83;2.63;;;;;;;;;;4978733;28;20424;-91
2022/06/21 11:34:50;;;;;;;5.10;3.30;;;;;;;;;;4977518;28;20433;-93
2022/06/21 11:37:20;;;;;;;3.60;3.50;;;;;;;;;;4980220;28;20455;-91
2022/06/21 11:40:05;;;;;;;2.97;2.77;;;;;;;;;;4982655;28;20445;-89
2022/06/21 11:42:56;;;;;;;2.50;2.30;;;;;;;;;;4986815;28;20452;-94
2022/06/21 11:48:21;;;;;;;;;;;;;;;;;;;;;
2022/06/21 11:56:16;;;;;;;3.63;2.60;;;;;;;;;;5146869;22;20494;-92
2022/06/21 12:01:25;;;;;;;3.37;2.70;;;;;;;;;;5203643;22;20524;-92
2022/06/21 12:04:10;;;;;;;3.00;2.93;;;;;;;;;;4967520;28;20514;-90
2022/06/21 12:06:43;;;;;;;3.63;3.33;;;;;;;;;;4967162;28;20464;-89
2022/06/21 12:09:18;;;;;;;5.77;4.00;;;;;;;;;;4982911;28;21100;-88
2022/06/21 12:11:57;;;;;;;;;;;;;;;;;;;;;
2022/06/21 12:14:47;;;;;;;3.60;3.50;;;;;;;;;;4989712;28;20444;-94
2022/06/21 12:17:30;;;;;;;;;;;;;;;;;;;;;
2022/06/21 12:20:03;;;;;;;4.97;3.83;;;;;;;;;;4986702;28;20520;-93
2022/06/21 12:22:47;;;;;;;3.50;3.20;;;;;;;;;;4986910;28;20478;-94
2022/06/21 12:25:16;;;;;;;2.93;2.70;;;;;;;;;;4953670;28;20499;-91
2022/06/21 12:27:42;;;;;;;2.83;2.70;;;;;;;;;;4988053;28;20480;-90
2022/06/21 12:30:31;;;;;;;3.13;2.93;;;;;;;;;;4969975;28;20870;-94
2022/06/21 12:33:06;;;;;;;2.73;2.63;;;;;;;;;;4948506;29;20434;-94
2022/06/21 12:35:44;;;;;;;3.03;2.80;;;;;;;;;;5005783;28;20439;-93
2022/06/21 12:38:25;;;;;;;3.10;2.80;;;;;;;;;;4978653;28;20565;-92
2022/06/21 12:41:02;;;;;;;3.93;3.70;;;;;;;;;;4950105;29;20472;-94
2022/06/21 12:43:37;;;;;;;3.40;3.30;;;;;;;;;;4966310;28;20421;-93
2022/06/21 12:46:10;;;;;;;4.10;3.70;;;;;;;;;;4988028;28;20436;-91
2022/06/21 12:48:54;;;;;;;3.00;2.90;;;;;;;;;;4970154;28;20823;-88
2022/06/21 12:51:48;;;;;;;3.07;2.97;;;;;;;;;;4988102;28;20506;-91
2022/06/21 12:54:45;;;;;;;4.93;2.83;;;31.20;45.70;;;;;;4958665;28;20433;-91
2022/06/21 12:57:37;;;;;;;3.10;2.90;;;32.10;43.70;;;;;;4968029;28;20437;-90
2022/06/21 13:00:43;;;;;;;3.10;2.90;;;34.50;43.50;;;;;;4993247;28;20468;-89
2022/06/21 13:03:27;;;;;;;4.10;4.00;;;32.40;42.00;;;;;;5010943;28;20474;-92
2022/06/21 13:09:29;;;;;;;;;;;;;;;;;;;;;
2022/06/21 13:15:28;;;;;;;3.60;3.30;;;28.60;45.20;;;;;;5011962;28;20486;-93
2022/06/21 13:17:54;;;;;;;4.00;3.90;;;28.40;45.10;;;;;;4997359;28;20408;-92
2022/06/21 13:20:44;;;;;;;4.53;4.23;;;28.40;47.20;;;;;;5011039;28;20417;-92
2022/06/21 13:23:18;;;;;;;3.73;3.53;;;;;;;;;;5116169;23;20508;-90
2022/06/21 13:26:25;;;;;;;8.83;7.70;;;28.00;53.40;;;;;;5492163;22;20529;-94
2022/06/21 13:29:19;;;;;;;3.27;3.07;;;29.70;48.10;;;;;;4979633;28;20470;-92
2022/06/21 13:32:06;;;;;;;3.20;2.90;;;29.80;45.40;;;;;;4982285;28;20445;-95
2022/06/21 13:35:23;;;;;;;4.07;3.20;;;30.00;43.90;;;;;;5004120;28;20446;-92
2022/06/21 13:38:24;;;;;;;;;;;;;;;;;;;;;
2022/06/21 13:44:27;;;;;;;3.77;3.20;;;30.40;44.10;;;;;;5000414;28;20443;-92
2022/06/21 13:47:05;;;;;;;3.80;3.00;;;29.60;44.80;;;;;;4975318;28;20463;-92
2022/06/21 13:49:59;;;;;;;3.53;3.33;;;30.90;43.50;;;;;;5000440;28;20440;-94
2022/06/21 13:52:36;;;;;;;2.97;2.87;;;28.30;40.60;;;;;;5015532;23;20487;-95
2022/06/21 13:55:43;;;;;;;3.30;3.10;;;32.50;42.20;;;;;;5009160;28;20444;-93
2022/06/21 13:58:42;;;;;;;5.90;3.20;;;29.10;39.50;;;;;;5006485;28;20444;-91
2022/06/21 14:01:42;;;;;;;2.90;2.80;;;33.70;41.80;;;;;;5012681;28;20451;-91
2022/06/21 14:04:43;;;;;;;4.20;3.90;;;34.00;41.40;;;;;;5009708;28;20420;-92
2022/06/21 14:07:55;;;;;;;2.97;2.73;;;33.40;41.10;;;;;;4988774;28;20558;-91
2022/06/21 14:10:24;;;;;;;3.50;3.30;;;30.90;40.30;;;;;;4988808;28;20512;-91
2022/06/21 14:13:09;;;;;;;3.00;2.80;;;32.80;42.40;;;;;;5017893;28;20464;-92
2022/06/21 14:15:42;;;;;;;3.07;3.00;;;31.50;42.40;;;;;;5012155;28;20404;-91
2022/06/21 14:18:24;;;;;;;4.80;4.33;;;30.70;42.70;;;;;;4991978;28;20410;-92
2022/06/21 14:21:07;;;;;;;3.20;3.00;;;31.10;41.90;;;;;;5009169;28;20442;-92
2022/06/21 14:23:48;;;;;;;3.07;2.97;;;30.70;42.80;;;;;;4974588;28;20484;-87
2022/06/21 14:26:36;;;;;;;3.30;3.20;;;30.50;42.50;;;;;;4647244;28;10000194;-88
2022/06/21 14:29:19;;;;;;;2.67;2.57;;;30.10;42.90;;;;;;4974361;28;20418;-86
2022/06/21 14:32:18;;;;;;;2.70;2.60;;;31.90;43.50;;;;;;4974848;28;20437;-92
2022/06/21 14:35:01;;;;;;;3.37;3.07;;;33.20;42.70;;;;;;4998748;28;20448;-90
2022/06/21 14:37:58;;;;;;;3.03;2.73;;;35.40;43.50;;;;;;5013588;28;20420;-90
2022/06/21 14:41:10;;;;;;;3.30;3.27;;;32.40;41.40;;;;;;5017424;23;20480;-92
2022/06/21 14:44:02;;;;;;;3.40;3.10;;;32.90;42.50;;;;;;5447891;22;20489;-93
2022/06/21 14:46:41;;;;;;;3.80;3.63;;;31.70;42.30;;;;;;4995174;28;20563;-92
2022/06/21 14:52:41;;;;;;;4.23;3.27;;;27.10;42.30;;;;;;5106070;22;20482;-92
2022/06/21 14:55:44;;;;;;;3.67;3.53;;;29.10;45.10;;;;;;5013968;28;20408;-90
2022/06/21 14:58:32;;;;;;;3.60;3.43;;;29.00;45.50;;;;;;5017249;28;20501;-92
2022/06/21 15:01:22;;;;;;;3.10;3.00;;;29.10;45.40;;;;;;5008962;28;20509;-93
2022/06/21 15:03:55;;;;;;;3.80;3.60;;;29.20;45.40;;;;;;5034982;28;20533;-88
2022/06/21 15:06:35;;;;;;;3.50;3.40;;;28.40;45.90;;;;;;5003714;28;20474;-93
2022/06/21 15:09:45;;;;;;;3.70;3.20;;;28.40;44.70;;;;;;5020591;28;20431;-89
2022/06/21 15:12:21;;;;;;;3.60;3.50;;;28.60;46.00;;;;;;5010226;28;20428;-92
2022/06/21 15:15:00;;;;;;;3.90;3.60;;;27.80;46.40;;;;;;5016447;28;20454;-89
2022/06/21 15:18:03;;;;;;;4.10;3.83;;;27.80;46.70;;;;;;5174724;22;20753;-92
2022/06/21 15:20:58;;;;;;;3.70;3.50;;;27.80;47.70;;;;;;5015277;28;20857;-89